sensor_id;sensor_type;location;lat;lon;timestamp;temperature;humidity
23475;DHT22;11910;52.086;21.066;2023-02-15T00:01:48;5.20;99.90
23475;DHT22;11910;52.086;21.066;2023-02-15T00:04:18;5.20;99.90
23475;DHT22;11910;52.086;21.066;2023-02-15T00:06:47;5.20;99.90
23475;DHT22;11910;52.086;21.066;2023-02-15T00:09:13;5.20;99.90
23475;DHT22;11910;52.086;21.066;2023-02-15T00:11:41;5.20;99.90
23475;DHT22;11910;52.086;21.066;2023-02-15T00:14:22;5.20;99.90
23475;DHT22;11910;52.086;21.066;2023-02-15T00:16:50;5.20;99.90
23475;DHT22;11910;52.086;21.066;2023-02-15T00:19:20;5.20;99.90
23475;DHT22;11910;52.086;21.066;2023-02-15T00:21:46;5.20;99.90
23475;DHT22;11910;52.086;21.066;2023-02-15T00:24:15;5.20;99.90
23475;DHT22;11910;52.086;21.066;2023-02-15T00:26:42;5.20;99.90
23475;DHT22;11910;52.086;21.066;2023-02-15T00:29:09;5.20;99.90
23475;DHT22;11910;52.086;21.066;2023-02-15T00:31:35;5.30;99.90
23475;DHT22;11910;52.086;21.066;2023-02-15T00:34:15;5.20;99.90
23475;DHT22;11910;52.086;21.066;2023-02-15T00:36:41;5.20;99.90
23475;DHT22;11910;52.086;21.066;2023-02-15T00:39:08;5.20;99.90
23475;DHT22;11910;52.086;21.066;2023-02-15T00:41:34;5.20;99.90
23475;DHT22;11910;52.086;21.066;2023-02-15T00:44:00;5.20;99.90
23475;DHT22;11910;52.086;21.066;2023-02-15T00:46:25;5.20;99.90
23475;DHT22;11910;52.086;21.066;2023-02-15T00:48:51;5.20;99.90
23475;DHT22;11910;52.086;21.066;2023-02-15T00:51:16;5.20;99.90
23475;DHT22;11910;52.086;21.066;2023-02-15T00:53:43;5.20;99.90
23475;DHT22;11910;52.086;21.066;2023-02-15T00:56:10;5.20;99.90
23475;DHT22;11910;52.086;21.066;2023-02-15T00:58:35;5.20;99.90
23475;DHT22;11910;52.086;21.066;2023-02-15T01:01:06;5.20;99.90
23475;DHT22;11910;52.086;21.066;2023-02-15T01:03:32;5.20;99.90
23475;DHT22;11910;52.086;21.066;2023-02-15T01:05:57;5.20;99.90
23475;DHT22;11910;52.086;21.066;2023-02-15T01:08:23;5.20;99.90
23475;DHT22;11910;52.086;21.066;2023-02-15T01:10:48;5.10;99.90
23475;DHT22;11910;52.086;21.066;2023-02-15T01:13:15;5.10;99.90
23475;DHT22;11910;52.086;21.066;2023-02-15T01:15:42;5.10;99.90
23475;DHT22;11910;52.086;21.066;2023-02-15T01:18:08;5.20;99.90
23475;DHT22;11910;52.086;21.066;2023-02-15T01:20:37;5.20;99.90
23475;DHT22;11910;52.086;21.066;2023-02-15T01:23:04;5.20;99.90
23475;DHT22;11910;52.086;21.066;2023-02-15T01:25:30;5.20;99.90
23475;DHT22;11910;52.086;21.066;2023-02-15T01:27:56;5.20;99.90
23475;DHT22;11910;52.086;21.066;2023-02-15T01:30:21;5.20;99.90
23475;DHT22;11910;52.086;21.066;2023-02-15T01:32:47;5.10;99.90
23475;DHT22;11910;52.086;21.066;2023-02-15T01:35:12;5.20;99.90
23475;DHT22;11910;52.086;21.066;2023-02-15T01:37:38;5.10;99.90
23475;DHT22;11910;52.086;21.066;2023-02-15T01:40:06;5.20;99.90
23475;DHT22;11910;52.086;21.066;2023-02-15T01:42:32;5.20;99.90
23475;DHT22;11910;52.086;21.066;2023-02-15T01:45:00;5.20;99.90
23475;DHT22;11910;52.086;21.066;2023-02-15T01:47:36;5.20;99.90
23475;DHT22;11910;52.086;21.066;2023-02-15T01:52:29;5.20;99.90
23475;DHT22;11910;52.086;21.066;2023-02-15T01:54:55;5.20;99.90
23475;DHT22;11910;52.086;21.066;2023-02-15T01:57:23;5.20;99.90
23475;DHT22;11910;52.086;21.066;2023-02-15T01:59:55;5.20;99.90
23475;DHT22;11910;52.086;21.066;2023-02-15T02:02:22;5.20;99.90
23475;DHT22;11910;52.086;21.066;2023-02-15T02:04:51;5.20;99.90
23475;DHT22;11910;52.086;21.066;2023-02-15T02:07:21;5.20;99.90
23475;DHT22;11910;52.086;21.066;2023-02-15T02:09:48;5.20;99.90
23475;DHT22;11910;52.086;21.066;2023-02-15T02:12:15;5.20;99.90
23475;DHT22;11910;52.086;21.066;2023-02-15T02:14:42;5.20;99.90
23475;DHT22;11910;52.086;21.066;2023-02-15T02:28:08;5.20;99.90
23475;DHT22;11910;52.086;21.066;2023-02-15T02:33:31;5.20;99.90
23475;DHT22;11910;52.086;21.066;2023-02-15T02:42:24;5.30;99.90
23475;DHT22;11910;52.086;21.066;2023-02-15T02:45:16;5.30;99.90
23475;DHT22;11910;52.086;21.066;2023-02-15T02:47:57;5.30;99.90
23475;DHT22;11910;52.086;21.066;2023-02-15T02:50:29;5.30;99.90
23475;DHT22;11910;52.086;21.066;2023-02-15T02:52:57;5.30;99.90
23475;DHT22;11910;52.086;21.066;2023-02-15T02:58:21;5.30;99.90
23475;DHT22;11910;52.086;21.066;2023-02-15T03:00:55;5.30;99.90
23475;DHT22;11910;52.086;21.066;2023-02-15T03:03:32;5.20;99.90
23475;DHT22;11910;52.086;21.066;2023-02-15T03:06:03;5.20;99.90
23475;DHT22;11910;52.086;21.066;2023-02-15T03:08:36;5.20;99.90
23475;DHT22;11910;52.086;21.066;2023-02-15T03:11:03;5.20;99.90
23475;DHT22;11910;52.086;21.066;2023-02-15T03:13:32;5.10;99.90
23475;DHT22;11910;52.086;21.066;2023-02-15T03:16:00;5.10;99.90
23475;DHT22;11910;52.086;21.066;2023-02-15T03:18:51;5.10;99.90
23475;DHT22;11910;52.086;21.066;2023-02-15T03:21:36;5.00;99.90
23475;DHT22;11910;52.086;21.066;2023-02-15T03:24:13;5.00;99.90
23475;DHT22;11910;52.086;21.066;2023-02-15T03:26:43;5.00;99.90
23475;DHT22;11910;52.086;21.066;2023-02-15T03:29:11;5.10;99.90
23475;DHT22;11910;52.086;21.066;2023-02-15T03:31:40;5.10;99.90
23475;DHT22;11910;52.086;21.066;2023-02-15T03:34:10;5.10;99.90
23475;DHT22;11910;52.086;21.066;2023-02-15T03:36:49;5.10;99.90
23475;DHT22;11910;52.086;21.066;2023-02-15T03:42:01;5.10;99.90
23475;DHT22;11910;52.086;21.066;2023-02-15T03:44:32;5.00;99.90
23475;DHT22;11910;52.086;21.066;2023-02-15T03:47:16;5.00;99.90
23475;DHT22;11910;52.086;21.066;2023-02-15T03:49:54;5.00;99.90
23475;DHT22;11910;52.086;21.066;2023-02-15T03:52:23;5.00;99.90
23475;DHT22;11910;52.086;21.066;2023-02-15T03:54:50;5.00;99.90
23475;DHT22;11910;52.086;21.066;2023-02-15T03:57:18;5.10;99.90
23475;DHT22;11910;52.086;21.066;2023-02-15T04:00:26;5.10;99.90
23475;DHT22;11910;52.086;21.066;2023-02-15T04:05:42;5.00;99.90
23475;DHT22;11910;52.086;21.066;2023-02-15T04:08:08;5.00;99.90
23475;DHT22;11910;52.086;21.066;2023-02-15T04:10:34;5.00;99.90
23475;DHT22;11910;52.086;21.066;2023-02-15T04:13:19;5.10;99.90
23475;DHT22;11910;52.086;21.066;2023-02-15T04:15:45;5.10;99.90
23475;DHT22;11910;52.086;21.066;2023-02-15T04:18:37;5.10;99.90
23475;DHT22;11910;52.086;21.066;2023-02-15T04:21:23;5.10;99.90
23475;DHT22;11910;52.086;21.066;2023-02-15T04:24:08;5.00;99.90
23475;DHT22;11910;52.086;21.066;2023-02-15T04:26:53;5.00;99.90
23475;DHT22;11910;52.086;21.066;2023-02-15T04:29:19;5.00;99.90
23475;DHT22;11910;52.086;21.066;2023-02-15T04:31:46;5.00;99.90
23475;DHT22;11910;52.086;21.066;2023-02-15T04:34:11;4.90;99.90
23475;DHT22;11910;52.086;21.066;2023-02-15T04:36:38;5.00;99.90
23475;DHT22;11910;52.086;21.066;2023-02-15T04:39:04;5.00;99.90
23475;DHT22;11910;52.086;21.066;2023-02-15T04:41:29;5.00;99.90
23475;DHT22;11910;52.086;21.066;2023-02-15T04:43:55;5.00;99.90
23475;DHT22;11910;52.086;21.066;2023-02-15T04:46:21;4.90;99.90
23475;DHT22;11910;52.086;21.066;2023-02-15T04:48:50;4.90;99.90
23475;DHT22;11910;52.086;21.066;2023-02-15T04:51:16;4.90;99.90
23475;DHT22;11910;52.086;21.066;2023-02-15T04:53:42;4.80;99.90
23475;DHT22;11910;52.086;21.066;2023-02-15T04:56:07;4.80;99.90
23475;DHT22;11910;52.086;21.066;2023-02-15T04:58:33;4.80;99.90
23475;DHT22;11910;52.086;21.066;2023-02-15T05:00:58;4.80;99.90
23475;DHT22;11910;52.086;21.066;2023-02-15T05:03:24;4.70;99.90
23475;DHT22;11910;52.086;21.066;2023-02-15T05:05:50;4.70;99.90
23475;DHT22;11910;52.086;21.066;2023-02-15T05:08:16;4.70;99.90
23475;DHT22;11910;52.086;21.066;2023-02-15T05:10:42;4.70;99.90
23475;DHT22;11910;52.086;21.066;2023-02-15T05:13:08;4.70;99.90
23475;DHT22;11910;52.086;21.066;2023-02-15T05:15:33;4.70;99.90
23475;DHT22;11910;52.086;21.066;2023-02-15T05:17:59;4.80;99.90
23475;DHT22;11910;52.086;21.066;2023-02-15T05:20:24;4.70;99.90
23475;DHT22;11910;52.086;21.066;2023-02-15T05:22:53;4.70;99.90
23475;DHT22;11910;52.086;21.066;2023-02-15T05:25:19;4.70;99.90
23475;DHT22;11910;52.086;21.066;2023-02-15T05:28:03;4.70;99.90
23475;DHT22;11910;52.086;21.066;2023-02-15T05:30:51;4.70;99.90
23475;DHT22;11910;52.086;21.066;2023-02-15T05:33:24;4.70;99.90
23475;DHT22;11910;52.086;21.066;2023-02-15T05:35:50;4.70;99.90
23475;DHT22;11910;52.086;21.066;2023-02-15T05:38:16;4.60;99.90
23475;DHT22;11910;52.086;21.066;2023-02-15T05:40:42;4.60;99.90
23475;DHT22;11910;52.086;21.066;2023-02-15T05:43:07;4.70;99.90
23475;DHT22;11910;52.086;21.066;2023-02-15T05:45:33;4.70;99.90
23475;DHT22;11910;52.086;21.066;2023-02-15T05:47:58;4.70;99.90
23475;DHT22;11910;52.086;21.066;2023-02-15T05:50:25;4.60;99.90
23475;DHT22;11910;52.086;21.066;2023-02-15T05:52:51;4.60;99.90
23475;DHT22;11910;52.086;21.066;2023-02-15T05:55:16;4.60;99.90
23475;DHT22;11910;52.086;21.066;2023-02-15T05:57:42;4.60;99.90
23475;DHT22;11910;52.086;21.066;2023-02-15T06:00:08;4.50;99.90
23475;DHT22;11910;52.086;21.066;2023-02-15T06:02:35;4.50;99.90
23475;DHT22;11910;52.086;21.066;2023-02-15T06:05:01;4.50;99.90
23475;DHT22;11910;52.086;21.066;2023-02-15T06:07:27;4.50;99.90
23475;DHT22;11910;52.086;21.066;2023-02-15T06:09:52;4.40;99.90
23475;DHT22;11910;52.086;21.066;2023-02-15T06:12:18;4.50;99.90
23475;DHT22;11910;52.086;21.066;2023-02-15T06:14:43;4.50;99.90
23475;DHT22;11910;52.086;21.066;2023-02-15T06:17:09;4.50;99.90
23475;DHT22;11910;52.086;21.066;2023-02-15T06:19:34;4.50;99.90
23475;DHT22;11910;52.086;21.066;2023-02-15T06:22:00;4.40;99.90
23475;DHT22;11910;52.086;21.066;2023-02-15T06:24:26;4.50;99.90
23475;DHT22;11910;52.086;21.066;2023-02-15T06:26:51;4.50;99.90
23475;DHT22;11910;52.086;21.066;2023-02-15T06:29:23;4.50;99.90
23475;DHT22;11910;52.086;21.066;2023-02-15T06:31:48;4.50;99.90
23475;DHT22;11910;52.086;21.066;2023-02-15T06:34:14;4.50;99.90
23475;DHT22;11910;52.086;21.066;2023-02-15T06:36:40;4.50;99.90
23475;DHT22;11910;52.086;21.066;2023-02-15T06:39:05;4.40;99.90
23475;DHT22;11910;52.086;21.066;2023-02-15T06:41:31;4.50;99.90
23475;DHT22;11910;52.086;21.066;2023-02-15T06:43:57;4.50;99.90
23475;DHT22;11910;52.086;21.066;2023-02-15T06:46:30;4.40;99.90
23475;DHT22;11910;52.086;21.066;2023-02-15T06:48:55;4.40;99.90
23475;DHT22;11910;52.086;21.066;2023-02-15T06:51:21;4.40;99.90
23475;DHT22;11910;52.086;21.066;2023-02-15T06:53:46;4.40;99.90
23475;DHT22;11910;52.086;21.066;2023-02-15T06:56:12;4.40;99.90
23475;DHT22;11910;52.086;21.066;2023-02-15T06:58:42;4.40;99.90
23475;DHT22;11910;52.086;21.066;2023-02-15T07:01:11;4.40;99.90
23475;DHT22;11910;52.086;21.066;2023-02-15T07:03:37;4.40;99.90
23475;DHT22;11910;52.086;21.066;2023-02-15T07:06:03;4.40;99.90
23475;DHT22;11910;52.086;21.066;2023-02-15T07:08:31;4.40;99.90
23475;DHT22;11910;52.086;21.066;2023-02-15T07:10:57;4.30;99.90
23475;DHT22;11910;52.086;21.066;2023-02-15T07:13:46;4.30;99.90
23475;DHT22;11910;52.086;21.066;2023-02-15T07:16:12;4.30;99.90
23475;DHT22;11910;52.086;21.066;2023-02-15T07:18:38;4.20;99.90
23475;DHT22;11910;52.086;21.066;2023-02-15T07:21:05;4.30;99.90
23475;DHT22;11910;52.086;21.066;2023-02-15T07:23:34;4.30;99.90
23475;DHT22;11910;52.086;21.066;2023-02-15T07:26:00;4.30;99.90
23475;DHT22;11910;52.086;21.066;2023-02-15T07:28:27;4.40;99.90
23475;DHT22;11910;52.086;21.066;2023-02-15T07:30:53;4.40;99.90
23475;DHT22;11910;52.086;21.066;2023-02-15T07:33:18;4.40;99.90
23475;DHT22;11910;52.086;21.066;2023-02-15T07:36:00;4.40;99.90
23475;DHT22;11910;52.086;21.066;2023-02-15T07:38:36;4.40;99.90
23475;DHT22;11910;52.086;21.066;2023-02-15T07:41:03;4.40;99.90
23475;DHT22;11910;52.086;21.066;2023-02-15T07:43:30;4.40;99.90
23475;DHT22;11910;52.086;21.066;2023-02-15T07:46:00;4.30;99.90
23475;DHT22;11910;52.086;21.066;2023-02-15T07:48:26;4.30;99.90
23475;DHT22;11910;52.086;21.066;2023-02-15T07:50:59;4.30;99.90
23475;DHT22;11910;52.086;21.066;2023-02-15T07:53:24;4.30;99.90
23475;DHT22;11910;52.086;21.066;2023-02-15T07:55:50;4.30;99.90
23475;DHT22;11910;52.086;21.066;2023-02-15T07:58:16;4.30;99.90
23475;DHT22;11910;52.086;21.066;2023-02-15T08:00:41;4.30;99.90
23475;DHT22;11910;52.086;21.066;2023-02-15T08:03:27;4.30;99.90
23475;DHT22;11910;52.086;21.066;2023-02-15T08:05:58;4.20;99.90
23475;DHT22;11910;52.086;21.066;2023-02-15T08:08:25;4.20;99.90
23475;DHT22;11910;52.086;21.066;2023-02-15T08:13:53;4.30;99.90
23475;DHT22;11910;52.086;21.066;2023-02-15T08:16:27;4.30;99.90
23475;DHT22;11910;52.086;21.066;2023-02-15T08:18:54;4.20;99.90
23475;DHT22;11910;52.086;21.066;2023-02-15T08:21:21;4.20;99.90
23475;DHT22;11910;52.086;21.066;2023-02-15T08:23:47;4.10;99.90
23475;DHT22;11910;52.086;21.066;2023-02-15T08:26:13;4.10;99.90
23475;DHT22;11910;52.086;21.066;2023-02-15T08:28:40;4.20;99.90
23475;DHT22;11910;52.086;21.066;2023-02-15T08:31:11;4.20;99.90
23475;DHT22;11910;52.086;21.066;2023-02-15T08:33:38;4.30;99.90
23475;DHT22;11910;52.086;21.066;2023-02-15T08:36:06;4.30;99.90
23475;DHT22;11910;52.086;21.066;2023-02-15T08:38:32;4.30;99.90
23475;DHT22;11910;52.086;21.066;2023-02-15T08:41:07;4.30;99.90
23475;DHT22;11910;52.086;21.066;2023-02-15T08:43:33;4.30;99.90
23475;DHT22;11910;52.086;21.066;2023-02-15T08:45:59;4.30;99.90
23475;DHT22;11910;52.086;21.066;2023-02-15T08:48:25;4.30;99.90
23475;DHT22;11910;52.086;21.066;2023-02-15T08:50:50;4.30;99.90
23475;DHT22;11910;52.086;21.066;2023-02-15T08:53:16;4.30;99.90
23475;DHT22;11910;52.086;21.066;2023-02-15T08:55:45;4.30;99.90
23475;DHT22;11910;52.086;21.066;2023-02-15T08:58:11;4.30;99.90
23475;DHT22;11910;52.086;21.066;2023-02-15T09:00:37;4.30;99.90
23475;DHT22;11910;52.086;21.066;2023-02-15T09:03:03;4.30;99.90
23475;DHT22;11910;52.086;21.066;2023-02-15T09:05:29;4.30;99.90
23475;DHT22;11910;52.086;21.066;2023-02-15T09:07:54;4.30;99.90
23475;DHT22;11910;52.086;21.066;2023-02-15T09:10:20;4.30;99.90
23475;DHT22;11910;52.086;21.066;2023-02-15T09:12:45;4.30;99.90
23475;DHT22;11910;52.086;21.066;2023-02-15T09:15:11;4.30;99.90
23475;DHT22;11910;52.086;21.066;2023-02-15T09:17:37;4.30;99.90
23475;DHT22;11910;52.086;21.066;2023-02-15T09:20:02;4.30;99.90
23475;DHT22;11910;52.086;21.066;2023-02-15T09:22:28;4.30;99.90
23475;DHT22;11910;52.086;21.066;2023-02-15T09:24:56;4.40;99.90
23475;DHT22;11910;52.086;21.066;2023-02-15T09:27:21;4.30;99.90
23475;DHT22;11910;52.086;21.066;2023-02-15T09:29:47;4.40;99.90
23475;DHT22;11910;52.086;21.066;2023-02-15T09:32:16;4.40;99.90
23475;DHT22;11910;52.086;21.066;2023-02-15T09:34:43;4.30;99.90
23475;DHT22;11910;52.086;21.066;2023-02-15T09:37:08;4.40;99.90
23475;DHT22;11910;52.086;21.066;2023-02-15T09:39:37;4.40;99.90
23475;DHT22;11910;52.086;21.066;2023-02-15T10:03:52;4.80;99.90
23475;DHT22;11910;52.086;21.066;2023-02-15T10:09:33;4.80;99.90
23475;DHT22;11910;52.086;21.066;2023-02-15T10:17:24;4.70;99.90
23475;DHT22;11910;52.086;21.066;2023-02-15T10:23:21;4.70;99.90
23475;DHT22;11910;52.086;21.066;2023-02-15T10:31:37;4.70;99.90
23475;DHT22;11910;52.086;21.066;2023-02-15T10:34:31;4.60;99.90
23475;DHT22;11910;52.086;21.066;2023-02-15T10:39:34;4.60;99.90
23475;DHT22;11910;52.086;21.066;2023-02-15T10:42:13;4.60;99.90
23475;DHT22;11910;52.086;21.066;2023-02-15T10:48:01;4.70;99.90
23475;DHT22;11910;52.086;21.066;2023-02-15T10:56:40;4.70;99.90
23475;DHT22;11910;52.086;21.066;2023-02-15T11:07:15;4.70;99.90
23475;DHT22;11910;52.086;21.066;2023-02-15T11:09:44;4.70;99.90
23475;DHT22;11910;52.086;21.066;2023-02-15T11:12:20;4.70;99.90
23475;DHT22;11910;52.086;21.066;2023-02-15T11:15:00;4.80;99.90
23475;DHT22;11910;52.086;21.066;2023-02-15T11:17:37;4.70;99.90
23475;DHT22;11910;52.086;21.066;2023-02-15T11:20:24;4.70;99.90
23475;DHT22;11910;52.086;21.066;2023-02-15T11:22:53;4.70;99.90
23475;DHT22;11910;52.086;21.066;2023-02-15T11:25:27;4.70;99.90
23475;DHT22;11910;52.086;21.066;2023-02-15T11:27:54;4.70;99.90
23475;DHT22;11910;52.086;21.066;2023-02-15T11:30:23;4.70;99.90
23475;DHT22;11910;52.086;21.066;2023-02-15T11:32:55;4.70;99.90
23475;DHT22;11910;52.086;21.066;2023-02-15T11:35:31;4.80;99.90
23475;DHT22;11910;52.086;21.066;2023-02-15T11:38:03;4.70;99.90
23475;DHT22;11910;52.086;21.066;2023-02-15T11:40:41;4.80;99.90
23475;DHT22;11910;52.086;21.066;2023-02-15T11:43:20;4.80;99.90
23475;DHT22;11910;52.086;21.066;2023-02-15T11:45:49;4.80;99.90
23475;DHT22;11910;52.086;21.066;2023-02-15T11:48:15;4.80;99.90
23475;DHT22;11910;52.086;21.066;2023-02-15T11:50:42;4.80;99.90
23475;DHT22;11910;52.086;21.066;2023-02-15T11:53:15;4.70;99.90
23475;DHT22;11910;52.086;21.066;2023-02-15T11:55:45;4.70;99.90
23475;DHT22;11910;52.086;21.066;2023-02-15T11:58:30;4.60;99.90
23475;DHT22;11910;52.086;21.066;2023-02-15T12:01:08;4.60;99.90
23475;DHT22;11910;52.086;21.066;2023-02-15T12:06:46;4.70;99.90
23475;DHT22;11910;52.086;21.066;2023-02-15T12:09:45;4.70;99.90
23475;DHT22;11910;52.086;21.066;2023-02-15T12:12:27;4.70;99.90
23475;DHT22;11910;52.086;21.066;2023-02-15T12:15:06;4.80;99.90
23475;DHT22;11910;52.086;21.066;2023-02-15T12:17:55;4.80;99.90
23475;DHT22;11910;52.086;21.066;2023-02-15T12:20:32;4.80;99.90
23475;DHT22;11910;52.086;21.066;2023-02-15T12:23:03;4.80;99.90
23475;DHT22;11910;52.086;21.066;2023-02-15T12:25:43;4.70;99.90
23475;DHT22;11910;52.086;21.066;2023-02-15T12:28:38;4.70;99.90
23475;DHT22;11910;52.086;21.066;2023-02-15T12:31:32;4.70;99.90
23475;DHT22;11910;52.086;21.066;2023-02-15T12:34:01;4.70;99.90
23475;DHT22;11910;52.086;21.066;2023-02-15T12:36:39;4.70;99.90
23475;DHT22;11910;52.086;21.066;2023-02-15T12:41:44;4.60;99.90
23475;DHT22;11910;52.086;21.066;2023-02-15T12:44:25;4.60;99.90
23475;DHT22;11910;52.086;21.066;2023-02-15T12:47:17;4.50;99.90
23475;DHT22;11910;52.086;21.066;2023-02-15T12:52:34;4.40;99.90
23475;DHT22;11910;52.086;21.066;2023-02-15T12:55:25;4.40;99.90
23475;DHT22;11910;52.086;21.066;2023-02-15T12:58:18;4.40;99.90
23475;DHT22;11910;52.086;21.066;2023-02-15T13:00:44;4.50;99.90
23475;DHT22;11910;52.086;21.066;2023-02-15T13:03:19;4.50;99.90
23475;DHT22;11910;52.086;21.066;2023-02-15T13:05:53;4.60;99.90
23475;DHT22;11910;52.086;21.066;2023-02-15T13:08:27;4.60;99.90
23475;DHT22;11910;52.086;21.066;2023-02-15T13:10:58;4.60;99.90
23475;DHT22;11910;52.086;21.066;2023-02-15T13:13:32;4.60;99.90
23475;DHT22;11910;52.086;21.066;2023-02-15T13:16:09;4.70;99.90
23475;DHT22;11910;52.086;21.066;2023-02-15T13:18:39;4.60;99.90
23475;DHT22;11910;52.086;21.066;2023-02-15T13:21:16;4.70;99.90
23475;DHT22;11910;52.086;21.066;2023-02-15T13:27:03;4.70;99.90
23475;DHT22;11910;52.086;21.066;2023-02-15T13:29:34;4.60;99.90
23475;DHT22;11910;52.086;21.066;2023-02-15T13:32:10;4.60;99.90
23475;DHT22;11910;52.086;21.066;2023-02-15T13:34:39;4.60;99.90
23475;DHT22;11910;52.086;21.066;2023-02-15T13:37:20;4.60;99.90
23475;DHT22;11910;52.086;21.066;2023-02-15T13:40:06;4.60;99.90
23475;DHT22;11910;52.086;21.066;2023-02-15T13:42:41;4.60;99.90
23475;DHT22;11910;52.086;21.066;2023-02-15T13:45:21;4.70;99.90
23475;DHT22;11910;52.086;21.066;2023-02-15T13:48:13;4.60;99.90
23475;DHT22;11910;52.086;21.066;2023-02-15T13:59:38;4.50;99.90
23475;DHT22;11910;52.086;21.066;2023-02-15T14:04:47;4.60;99.90
23475;DHT22;11910;52.086;21.066;2023-02-15T14:07:25;4.60;99.90
23475;DHT22;11910;52.086;21.066;2023-02-15T14:10:13;4.60;99.90
23475;DHT22;11910;52.086;21.066;2023-02-15T14:19:13;4.60;99.90
23475;DHT22;11910;52.086;21.066;2023-02-15T14:21:53;4.60;99.90
23475;DHT22;11910;52.086;21.066;2023-02-15T14:24:37;4.60;99.90
23475;DHT22;11910;52.086;21.066;2023-02-15T14:30:23;4.60;99.90
23475;DHT22;11910;52.086;21.066;2023-02-15T14:32:54;4.60;99.90
23475;DHT22;11910;52.086;21.066;2023-02-15T14:35:27;4.60;99.90
23475;DHT22;11910;52.086;21.066;2023-02-15T14:49:03;4.50;99.90
23475;DHT22;11910;52.086;21.066;2023-02-15T14:56:44;4.50;99.90
23475;DHT22;11910;52.086;21.066;2023-02-15T14:59:19;4.50;99.90
23475;DHT22;11910;52.086;21.066;2023-02-15T15:01:56;4.50;99.90
23475;DHT22;11910;52.086;21.066;2023-02-15T15:07:23;4.60;99.90
23475;DHT22;11910;52.086;21.066;2023-02-15T15:15:05;4.40;99.90
23475;DHT22;11910;52.086;21.066;2023-02-15T15:20:37;4.40;99.90
23475;DHT22;11910;52.086;21.066;2023-02-15T15:48:29;4.20;99.90
23475;DHT22;11910;52.086;21.066;2023-02-15T15:51:10;4.20;99.90
23475;DHT22;11910;52.086;21.066;2023-02-15T15:53:42;4.20;99.90
23475;DHT22;11910;52.086;21.066;2023-02-15T15:56:19;4.20;99.90
23475;DHT22;11910;52.086;21.066;2023-02-15T15:58:52;4.20;99.90
23475;DHT22;11910;52.086;21.066;2023-02-15T16:01:26;4.30;99.90
23475;DHT22;11910;52.086;21.066;2023-02-15T16:03:54;4.30;99.90
23475;DHT22;11910;52.086;21.066;2023-02-15T16:06:34;4.30;99.90
23475;DHT22;11910;52.086;21.066;2023-02-15T16:09:21;4.30;99.90
23475;DHT22;11910;52.086;21.066;2023-02-15T16:11:58;4.20;99.90
23475;DHT22;11910;52.086;21.066;2023-02-15T16:14:40;4.10;99.90
23475;DHT22;11910;52.086;21.066;2023-02-15T16:17:17;4.00;99.90
23475;DHT22;11910;52.086;21.066;2023-02-15T16:19:45;4.00;99.90
23475;DHT22;11910;52.086;21.066;2023-02-15T16:22:18;4.00;99.90
23475;DHT22;11910;52.086;21.066;2023-02-15T16:27:42;4.00;99.90
23475;DHT22;11910;52.086;21.066;2023-02-15T16:30:27;3.90;99.90
23475;DHT22;11910;52.086;21.066;2023-02-15T16:33:14;4.00;99.90
23475;DHT22;11910;52.086;21.066;2023-02-15T16:35:56;4.00;99.90
23475;DHT22;11910;52.086;21.066;2023-02-15T16:41:20;4.10;99.90
23475;DHT22;11910;52.086;21.066;2023-02-15T16:43:49;4.00;99.90
23475;DHT22;11910;52.086;21.066;2023-02-15T16:46:27;4.10;99.90
23475;DHT22;11910;52.086;21.066;2023-02-15T16:48:57;4.10;99.90
23475;DHT22;11910;52.086;21.066;2023-02-15T16:51:29;4.10;99.90
23475;DHT22;11910;52.086;21.066;2023-02-15T16:53:56;4.00;99.90
23475;DHT22;11910;52.086;21.066;2023-02-15T16:56:29;4.00;99.90
23475;DHT22;11910;52.086;21.066;2023-02-15T16:58:58;4.00;99.90
23475;DHT22;11910;52.086;21.066;2023-02-15T17:01:28;3.90;99.90
23475;DHT22;11910;52.086;21.066;2023-02-15T17:04:35;3.90;99.90
23475;DHT22;11910;52.086;21.066;2023-02-15T17:09:29;3.80;99.90
23475;DHT22;11910;52.086;21.066;2023-02-15T17:11:54;3.90;99.90
23475;DHT22;11910;52.086;21.066;2023-02-15T17:14:28;3.80;99.90
23475;DHT22;11910;52.086;21.066;2023-02-15T17:16:59;3.80;99.90
23475;DHT22;11910;52.086;21.066;2023-02-15T17:19:40;3.80;99.90
23475;DHT22;11910;52.086;21.066;2023-02-15T17:22:20;3.80;99.90
23475;DHT22;11910;52.086;21.066;2023-02-15T17:24:47;3.80;99.90
23475;DHT22;11910;52.086;21.066;2023-02-15T17:27:20;3.80;99.90
23475;DHT22;11910;52.086;21.066;2023-02-15T17:29:50;3.80;99.90
23475;DHT22;11910;52.086;21.066;2023-02-15T17:32:28;3.80;99.90
23475;DHT22;11910;52.086;21.066;2023-02-15T17:37:30;3.90;99.90
23475;DHT22;11910;52.086;21.066;2023-02-15T17:39:58;4.00;99.90
23475;DHT22;11910;52.086;21.066;2023-02-15T17:42:24;3.90;99.90
23475;DHT22;11910;52.086;21.066;2023-02-15T17:44:49;3.90;99.90
23475;DHT22;11910;52.086;21.066;2023-02-15T17:47:20;3.90;99.90
23475;DHT22;11910;52.086;21.066;2023-02-15T17:49:47;3.90;99.90
23475;DHT22;11910;52.086;21.066;2023-02-15T17:52:14;3.80;99.90
23475;DHT22;11910;52.086;21.066;2023-02-15T17:54:41;3.80;99.90
23475;DHT22;11910;52.086;21.066;2023-02-15T17:57:25;3.90;99.90
23475;DHT22;11910;52.086;21.066;2023-02-15T17:59:52;3.90;99.90
23475;DHT22;11910;52.086;21.066;2023-02-15T18:02:36;3.80;99.90
23475;DHT22;11910;52.086;21.066;2023-02-15T18:05:21;3.80;99.90
23475;DHT22;11910;52.086;21.066;2023-02-15T18:08:15;3.80;99.90
23475;DHT22;11910;52.086;21.066;2023-02-15T18:11:01;3.80;99.90
23475;DHT22;11910;52.086;21.066;2023-02-15T18:13:46;3.80;99.90
23475;DHT22;11910;52.086;21.066;2023-02-15T18:16:24;3.80;99.90
23475;DHT22;11910;52.086;21.066;2023-02-15T18:18:51;3.90;99.90
23475;DHT22;11910;52.086;21.066;2023-02-15T18:21:17;3.90;99.90
23475;DHT22;11910;52.086;21.066;2023-02-15T18:23:43;3.90;99.90
23475;DHT22;11910;52.086;21.066;2023-02-15T18:26:19;3.90;99.90
23475;DHT22;11910;52.086;21.066;2023-02-15T18:28:45;4.00;99.90
23475;DHT22;11910;52.086;21.066;2023-02-15T18:31:11;4.00;99.90
23475;DHT22;11910;52.086;21.066;2023-02-15T18:33:49;4.00;99.90
23475;DHT22;11910;52.086;21.066;2023-02-15T18:36:22;4.00;99.90
23475;DHT22;11910;52.086;21.066;2023-02-15T18:38:48;4.00;99.90
23475;DHT22;11910;52.086;21.066;2023-02-15T18:41:16;4.10;99.90
23475;DHT22;11910;52.086;21.066;2023-02-15T18:43:43;4.10;99.90
23475;DHT22;11910;52.086;21.066;2023-02-15T18:46:09;4.10;99.90
23475;DHT22;11910;52.086;21.066;2023-02-15T18:48:34;4.10;99.90
23475;DHT22;11910;52.086;21.066;2023-02-15T18:51:00;4.10;99.90
23475;DHT22;11910;52.086;21.066;2023-02-15T18:53:26;4.10;99.90
23475;DHT22;11910;52.086;21.066;2023-02-15T18:55:52;4.00;99.90
23475;DHT22;11910;52.086;21.066;2023-02-15T18:58:20;4.00;99.90
23475;DHT22;11910;52.086;21.066;2023-02-15T19:00:46;3.90;99.90
23475;DHT22;11910;52.086;21.066;2023-02-15T19:03:14;3.80;99.90
23475;DHT22;11910;52.086;21.066;2023-02-15T19:05:45;3.70;99.90